sensor_id;sensor_type;location;lat;lon;timestamp;temperature;humidity
5792;DHT22;2922;53.482;10.006;2022-10-13T00:00:24;8.50;99.90
5792;DHT22;2922;53.482;10.006;2022-10-13T00:02:50;8.50;99.90
5792;DHT22;2922;53.482;10.006;2022-10-13T00:05:16;8.60;99.90
5792;DHT22;2922;53.482;10.006;2022-10-13T00:07:42;8.60;99.90
5792;DHT22;2922;53.482;10.006;2022-10-13T00:10:08;8.50;99.90
5792;DHT22;2922;53.482;10.006;2022-10-13T00:12:37;8.60;99.90
5792;DHT22;2922;53.482;10.006;2022-10-13T00:15:05;8.60;99.90
5792;DHT22;2922;53.482;10.006;2022-10-13T00:17:30;8.60;99.90
5792;DHT22;2922;53.482;10.006;2022-10-13T00:19:56;8.60;99.90
5792;DHT22;2922;53.482;10.006;2022-10-13T00:22:22;8.50;99.90
5792;DHT22;2922;53.482;10.006;2022-10-13T00:24:51;8.50;99.90
5792;DHT22;2922;53.482;10.006;2022-10-13T00:27:17;8.50;99.90
5792;DHT22;2922;53.482;10.006;2022-10-13T00:29:43;8.60;99.90
5792;DHT22;2922;53.482;10.006;2022-10-13T00:32:09;8.50;99.90
5792;DHT22;2922;53.482;10.006;2022-10-13T00:34:36;8.50;99.90
5792;DHT22;2922;53.482;10.006;2022-10-13T00:37:01;8.50;99.90
5792;DHT22;2922;53.482;10.006;2022-10-13T00:39:27;8.50;99.90
5792;DHT22;2922;53.482;10.006;2022-10-13T00:41:53;8.50;99.90
5792;DHT22;2922;53.482;10.006;2022-10-13T00:47:22;8.50;99.90
5792;DHT22;2922;53.482;10.006;2022-10-13T00:49:49;8.50;99.90
5792;DHT22;2922;53.482;10.006;2022-10-13T00:52:16;8.50;99.90
5792;DHT22;2922;53.482;10.006;2022-10-13T00:54:42;8.50;99.90
5792;DHT22;2922;53.482;10.006;2022-10-13T00:57:09;8.40;99.90
5792;DHT22;2922;53.482;10.006;2022-10-13T00:59:35;8.40;99.90
5792;DHT22;2922;53.482;10.006;2022-10-13T01:02:02;8.40;99.90
5792;DHT22;2922;53.482;10.006;2022-10-13T01:04:32;8.40;99.90
5792;DHT22;2922;53.482;10.006;2022-10-13T01:06:59;8.40;99.90
5792;DHT22;2922;53.482;10.006;2022-10-13T01:09:25;8.40;99.90
5792;DHT22;2922;53.482;10.006;2022-10-13T01:22:44;8.40;99.90
5792;DHT22;2922;53.482;10.006;2022-10-13T01:25:40;8.40;99.90
5792;DHT22;2922;53.482;10.006;2022-10-13T01:28:17;8.30;99.90
5792;DHT22;2922;53.482;10.006;2022-10-13T01:30:51;8.30;99.90
5792;DHT22;2922;53.482;10.006;2022-10-13T01:33:28;8.30;99.90
5792;DHT22;2922;53.482;10.006;2022-10-13T01:39:45;8.20;99.90
5792;DHT22;2922;53.482;10.006;2022-10-13T01:41:54;8.20;99.90
5792;DHT22;2922;53.482;10.006;2022-10-13T01:44:37;8.10;99.90
5792;DHT22;2922;53.482;10.006;2022-10-13T01:47:05;8.10;99.90
5792;DHT22;2922;53.482;10.006;2022-10-13T01:49:33;8.10;99.90
5792;DHT22;2922;53.482;10.006;2022-10-13T01:52:06;8.00;99.90
5792;DHT22;2922;53.482;10.006;2022-10-13T01:54:32;8.00;99.90
5792;DHT22;2922;53.482;10.006;2022-10-13T01:56:58;7.90;99.90
5792;DHT22;2922;53.482;10.006;2022-10-13T01:59:25;7.90;99.90
5792;DHT22;2922;53.482;10.006;2022-10-13T02:02:10;7.80;99.90
5792;DHT22;2922;53.482;10.006;2022-10-13T02:04:47;7.80;99.90
5792;DHT22;2922;53.482;10.006;2022-10-13T02:13:05;7.70;99.90
5792;DHT22;2922;53.482;10.006;2022-10-13T02:15:42;7.60;99.90
5792;DHT22;2922;53.482;10.006;2022-10-13T02:18:12;7.60;99.90
5792;DHT22;2922;53.482;10.006;2022-10-13T02:20:40;7.60;99.90
5792;DHT22;2922;53.482;10.006;2022-10-13T02:23:09;7.60;99.90
5792;DHT22;2922;53.482;10.006;2022-10-13T02:25:35;7.60;99.90
5792;DHT22;2922;53.482;10.006;2022-10-13T02:28:01;7.60;99.90
5792;DHT22;2922;53.482;10.006;2022-10-13T02:30:29;7.60;99.90
5792;DHT22;2922;53.482;10.006;2022-10-13T02:32:55;7.60;99.90
5792;DHT22;2922;53.482;10.006;2022-10-13T02:35:21;7.50;99.90
5792;DHT22;2922;53.482;10.006;2022-10-13T02:37:46;7.50;99.90
5792;DHT22;2922;53.482;10.006;2022-10-13T02:40:12;7.60;99.90
5792;DHT22;2922;53.482;10.006;2022-10-13T02:42:38;7.50;99.90
5792;DHT22;2922;53.482;10.006;2022-10-13T02:45:04;7.60;99.90
5792;DHT22;2922;53.482;10.006;2022-10-13T02:47:30;7.60;99.90
5792;DHT22;2922;53.482;10.006;2022-10-13T02:49:56;7.50;99.90
5792;DHT22;2922;53.482;10.006;2022-10-13T02:52:21;7.60;99.90
5792;DHT22;2922;53.482;10.006;2022-10-13T02:54:47;7.60;99.90
5792;DHT22;2922;53.482;10.006;2022-10-13T02:57:12;7.60;99.90
5792;DHT22;2922;53.482;10.006;2022-10-13T02:59:38;7.60;99.90
5792;DHT22;2922;53.482;10.006;2022-10-13T03:02:03;7.60;99.90
5792;DHT22;2922;53.482;10.006;2022-10-13T03:04:29;7.60;99.90
5792;DHT22;2922;53.482;10.006;2022-10-13T03:06:55;7.50;99.90
5792;DHT22;2922;53.482;10.006;2022-10-13T03:09:20;7.50;99.90
5792;DHT22;2922;53.482;10.006;2022-10-13T03:11:46;7.50;99.90
5792;DHT22;2922;53.482;10.006;2022-10-13T03:14:11;7.60;99.90
5792;DHT22;2922;53.482;10.006;2022-10-13T03:16:37;7.60;99.90
5792;DHT22;2922;53.482;10.006;2022-10-13T03:19:03;7.60;99.90
5792;DHT22;2922;53.482;10.006;2022-10-13T03:21:29;7.60;99.90
5792;DHT22;2922;53.482;10.006;2022-10-13T03:23:55;7.60;99.90
5792;DHT22;2922;53.482;10.006;2022-10-13T03:26:20;7.60;99.90
5792;DHT22;2922;53.482;10.006;2022-10-13T03:28:50;7.60;99.90
5792;DHT22;2922;53.482;10.006;2022-10-13T03:31:16;7.50;99.90
5792;DHT22;2922;53.482;10.006;2022-10-13T03:33:43;7.50;99.90
5792;DHT22;2922;53.482;10.006;2022-10-13T03:36:10;7.50;99.90
5792;DHT22;2922;53.482;10.006;2022-10-13T03:38:36;7.50;99.90
5792;DHT22;2922;53.482;10.006;2022-10-13T03:41:16;7.50;99.90
5792;DHT22;2922;53.482;10.006;2022-10-13T03:43:43;7.50;99.90
5792;DHT22;2922;53.482;10.006;2022-10-13T03:46:14;7.40;99.90
5792;DHT22;2922;53.482;10.006;2022-10-13T03:48:40;7.40;99.90
5792;DHT22;2922;53.482;10.006;2022-10-13T03:51:16;7.40;99.90
5792;DHT22;2922;53.482;10.006;2022-10-13T03:53:42;7.40;99.90
5792;DHT22;2922;53.482;10.006;2022-10-13T03:56:15;7.40;99.90
5792;DHT22;2922;53.482;10.006;2022-10-13T03:58:41;7.40;99.90
5792;DHT22;2922;53.482;10.006;2022-10-13T04:01:07;7.40;99.90
5792;DHT22;2922;53.482;10.006;2022-10-13T04:03:33;7.40;99.90
5792;DHT22;2922;53.482;10.006;2022-10-13T04:06:04;7.40;99.90
5792;DHT22;2922;53.482;10.006;2022-10-13T04:08:31;7.50;99.90
5792;DHT22;2922;53.482;10.006;2022-10-13T04:11:01;7.50;99.90
5792;DHT22;2922;53.482;10.006;2022-10-13T04:13:27;7.50;99.90
5792;DHT22;2922;53.482;10.006;2022-10-13T04:15:53;7.50;99.90
5792;DHT22;2922;53.482;10.006;2022-10-13T04:18:19;7.50;99.90
5792;DHT22;2922;53.482;10.006;2022-10-13T04:20:44;7.50;99.90
5792;DHT22;2922;53.482;10.006;2022-10-13T04:23:10;7.60;99.90
5792;DHT22;2922;53.482;10.006;2022-10-13T04:25:36;7.60;99.90
5792;DHT22;2922;53.482;10.006;2022-10-13T04:28:06;7.60;99.90
5792;DHT22;2922;53.482;10.006;2022-10-13T04:30:35;7.60;99.90
5792;DHT22;2922;53.482;10.006;2022-10-13T04:33:01;7.60;99.90
5792;DHT22;2922;53.482;10.006;2022-10-13T04:35:26;7.50;99.90
5792;DHT22;2922;53.482;10.006;2022-10-13T04:37:52;7.60;99.90
5792;DHT22;2922;53.482;10.006;2022-10-13T04:40:18;7.60;99.90
5792;DHT22;2922;53.482;10.006;2022-10-13T04:42:43;7.60;99.90
5792;DHT22;2922;53.482;10.006;2022-10-13T04:45:09;7.60;99.90
5792;DHT22;2922;53.482;10.006;2022-10-13T04:47:35;7.60;99.90
5792;DHT22;2922;53.482;10.006;2022-10-13T04:50:02;7.50;99.90
5792;DHT22;2922;53.482;10.006;2022-10-13T04:52:28;7.50;99.90
5792;DHT22;2922;53.482;10.006;2022-10-13T04:54:53;7.50;99.90
5792;DHT22;2922;53.482;10.006;2022-10-13T04:57:19;7.50;99.90
5792;DHT22;2922;53.482;10.006;2022-10-13T04:59:44;7.50;99.90
5792;DHT22;2922;53.482;10.006;2022-10-13T05:02:10;7.50;99.90
5792;DHT22;2922;53.482;10.006;2022-10-13T05:04:36;7.50;99.90
5792;DHT22;2922;53.482;10.006;2022-10-13T05:07:02;7.50;99.90
5792;DHT22;2922;53.482;10.006;2022-10-13T05:09:27;7.50;99.90
5792;DHT22;2922;53.482;10.006;2022-10-13T05:11:53;7.40;99.90
5792;DHT22;2922;53.482;10.006;2022-10-13T05:14:20;7.40;99.90
5792;DHT22;2922;53.482;10.006;2022-10-13T05:16:46;7.40;99.90
5792;DHT22;2922;53.482;10.006;2022-10-13T05:19:12;7.40;99.90
5792;DHT22;2922;53.482;10.006;2022-10-13T05:21:38;7.40;99.90
5792;DHT22;2922;53.482;10.006;2022-10-13T05:24:04;7.40;99.90
5792;DHT22;2922;53.482;10.006;2022-10-13T05:26:34;7.50;99.90
5792;DHT22;2922;53.482;10.006;2022-10-13T05:29:01;7.50;99.90
5792;DHT22;2922;53.482;10.006;2022-10-13T05:31:28;7.50;99.90
5792;DHT22;2922;53.482;10.006;2022-10-13T05:33:54;7.50;99.90
5792;DHT22;2922;53.482;10.006;2022-10-13T05:36:23;7.50;99.90
5792;DHT22;2922;53.482;10.006;2022-10-13T05:38:53;7.50;99.90
5792;DHT22;2922;53.482;10.006;2022-10-13T05:41:20;7.60;99.90
5792;DHT22;2922;53.482;10.006;2022-10-13T05:43:47;7.60;99.90
5792;DHT22;2922;53.482;10.006;2022-10-13T05:46:13;7.60;99.90
5792;DHT22;2922;53.482;10.006;2022-10-13T05:48:38;7.60;99.90
5792;DHT22;2922;53.482;10.006;2022-10-13T05:51:13;7.60;99.90
5792;DHT22;2922;53.482;10.006;2022-10-13T05:53:44;7.70;99.90
5792;DHT22;2922;53.482;10.006;2022-10-13T05:56:15;7.70;99.90
5792;DHT22;2922;53.482;10.006;2022-10-13T05:58:46;7.70;99.90
5792;DHT22;2922;53.482;10.006;2022-10-13T06:01:16;7.70;99.90
5792;DHT22;2922;53.482;10.006;2022-10-13T06:03:44;7.70;99.90
5792;DHT22;2922;53.482;10.006;2022-10-13T06:06:10;7.70;99.90
5792;DHT22;2922;53.482;10.006;2022-10-13T06:08:37;7.70;99.90
5792;DHT22;2922;53.482;10.006;2022-10-13T06:11:03;7.70;99.90
5792;DHT22;2922;53.482;10.006;2022-10-13T06:13:29;7.70;99.90
5792;DHT22;2922;53.482;10.006;2022-10-13T06:15:55;7.80;99.90
5792;DHT22;2922;53.482;10.006;2022-10-13T06:18:21;7.80;99.90
5792;DHT22;2922;53.482;10.006;2022-10-13T06:20:46;7.80;99.90
5792;DHT22;2922;53.482;10.006;2022-10-13T06:23:12;7.80;99.90
5792;DHT22;2922;53.482;10.006;2022-10-13T06:25:37;7.80;99.90
5792;DHT22;2922;53.482;10.006;2022-10-13T06:28:10;7.90;99.90
5792;DHT22;2922;53.482;10.006;2022-10-13T06:30:37;7.90;99.90
5792;DHT22;2922;53.482;10.006;2022-10-13T06:33:02;7.90;99.90
5792;DHT22;2922;53.482;10.006;2022-10-13T06:35:29;8.00;99.90
5792;DHT22;2922;53.482;10.006;2022-10-13T06:37:56;8.00;99.90
5792;DHT22;2922;53.482;10.006;2022-10-13T06:40:21;8.00;99.90
5792;DHT22;2922;53.482;10.006;2022-10-13T06:42:50;8.10;99.90
5792;DHT22;2922;53.482;10.006;2022-10-13T06:45:18;8.10;99.90
5792;DHT22;2922;53.482;10.006;2022-10-13T06:47:45;8.10;99.90
5792;DHT22;2922;53.482;10.006;2022-10-13T06:50:11;8.20;99.90
5792;DHT22;2922;53.482;10.006;2022-10-13T06:52:37;8.20;99.90
5792;DHT22;2922;53.482;10.006;2022-10-13T06:55:03;8.20;99.90
5792;DHT22;2922;53.482;10.006;2022-10-13T06:57:28;8.30;99.90
5792;DHT22;2922;53.482;10.006;2022-10-13T06:59:54;8.30;99.90
5792;DHT22;2922;53.482;10.006;2022-10-13T07:02:20;8.40;99.90
5792;DHT22;2922;53.482;10.006;2022-10-13T07:04:46;8.50;99.90
5792;DHT22;2922;53.482;10.006;2022-10-13T07:07:11;8.50;99.90
5792;DHT22;2922;53.482;10.006;2022-10-13T07:09:38;8.50;99.90
5792;DHT22;2922;53.482;10.006;2022-10-13T07:12:05;8.60;99.90
5792;DHT22;2922;53.482;10.006;2022-10-13T07:14:31;8.70;99.90
5792;DHT22;2922;53.482;10.006;2022-10-13T07:16:57;8.70;99.90
5792;DHT22;2922;53.482;10.006;2022-10-13T07:19:23;8.80;99.90
5792;DHT22;2922;53.482;10.006;2022-10-13T07:21:48;8.80;99.90
5792;DHT22;2922;53.482;10.006;2022-10-13T07:24:14;8.80;99.90
5792;DHT22;2922;53.482;10.006;2022-10-13T07:26:39;8.90;99.90
5792;DHT22;2922;53.482;10.006;2022-10-13T07:29:05;9.00;99.90
5792;DHT22;2922;53.482;10.006;2022-10-13T07:31:31;9.00;99.90
5792;DHT22;2922;53.482;10.006;2022-10-13T07:33:58;9.10;99.90
5792;DHT22;2922;53.482;10.006;2022-10-13T07:36:24;9.10;99.90
5792;DHT22;2922;53.482;10.006;2022-10-13T07:38:50;9.20;99.90
5792;DHT22;2922;53.482;10.006;2022-10-13T07:41:16;9.20;99.90
5792;DHT22;2922;53.482;10.006;2022-10-13T07:43:42;9.30;99.90
5792;DHT22;2922;53.482;10.006;2022-10-13T07:46:09;9.40;99.90
5792;DHT22;2922;53.482;10.006;2022-10-13T07:48:36;9.40;99.90
5792;DHT22;2922;53.482;10.006;2022-10-13T07:51:10;9.50;99.90
5792;DHT22;2922;53.482;10.006;2022-10-13T07:53:36;9.50;99.90
5792;DHT22;2922;53.482;10.006;2022-10-13T07:56:04;9.60;99.90
5792;DHT22;2922;53.482;10.006;2022-10-13T07:58:30;9.70;99.90
5792;DHT22;2922;53.482;10.006;2022-10-13T08:01:00;9.70;99.90
5792;DHT22;2922;53.482;10.006;2022-10-13T08:03:26;9.80;99.90
5792;DHT22;2922;53.482;10.006;2022-10-13T08:05:53;9.80;99.90
5792;DHT22;2922;53.482;10.006;2022-10-13T08:08:18;9.80;99.90
5792;DHT22;2922;53.482;10.006;2022-10-13T08:10:44;9.90;99.90
5792;DHT22;2922;53.482;10.006;2022-10-13T08:13:10;10.00;99.90
5792;DHT22;2922;53.482;10.006;2022-10-13T08:15:40;10.00;99.90
5792;DHT22;2922;53.482;10.006;2022-10-13T08:18:07;10.10;99.90
5792;DHT22;2922;53.482;10.006;2022-10-13T08:20:33;10.20;99.90
5792;DHT22;2922;53.482;10.006;2022-10-13T08:22:59;10.20;99.90
5792;DHT22;2922;53.482;10.006;2022-10-13T08:25:25;10.40;99.90
5792;DHT22;2922;53.482;10.006;2022-10-13T08:27:51;10.40;99.90
5792;DHT22;2922;53.482;10.006;2022-10-13T08:30:17;10.50;99.90
5792;DHT22;2922;53.482;10.006;2022-10-13T08:32:43;10.50;99.90
5792;DHT22;2922;53.482;10.006;2022-10-13T08:35:09;10.60;99.90
5792;DHT22;2922;53.482;10.006;2022-10-13T08:37:34;10.60;99.90
5792;DHT22;2922;53.482;10.006;2022-10-13T08:40:00;10.70;99.90
5792;DHT22;2922;53.482;10.006;2022-10-13T08:42:26;10.70;99.90
5792;DHT22;2922;53.482;10.006;2022-10-13T08:44:55;10.80;99.90
5792;DHT22;2922;53.482;10.006;2022-10-13T08:50:15;11.00;99.90
5792;DHT22;2922;53.482;10.006;2022-10-13T08:52:53;11.00;99.90
5792;DHT22;2922;53.482;10.006;2022-10-13T08:58:23;11.20;99.90
5792;DHT22;2922;53.482;10.006;2022-10-13T09:01:17;11.30;99.90
5792;DHT22;2922;53.482;10.006;2022-10-13T09:06:23;11.40;99.90
5792;DHT22;2922;53.482;10.006;2022-10-13T09:09:04;11.50;99.90
5792;DHT22;2922;53.482;10.006;2022-10-13T09:11:36;11.60;99.90
5792;DHT22;2922;53.482;10.006;2022-10-13T09:14:23;11.80;99.90
5792;DHT22;2922;53.482;10.006;2022-10-13T09:16:51;11.90;99.90
5792;DHT22;2922;53.482;10.006;2022-10-13T09:19:22;12.00;99.90
5792;DHT22;2922;53.482;10.006;2022-10-13T09:21:49;12.10;99.90
5792;DHT22;2922;53.482;10.006;2022-10-13T09:24:18;12.30;99.90
5792;DHT22;2922;53.482;10.006;2022-10-13T09:26:46;12.50;99.90
5792;DHT22;2922;53.482;10.006;2022-10-13T09:29:20;12.60;99.90
5792;DHT22;2922;53.482;10.006;2022-10-13T09:31:46;12.80;99.90
5792;DHT22;2922;53.482;10.006;2022-10-13T09:36:37;13.00;99.90
5792;DHT22;2922;53.482;10.006;2022-10-13T09:41:31;13.10;99.90
5792;DHT22;2922;53.482;10.006;2022-10-13T09:44:01;13.30;99.90
5792;DHT22;2922;53.482;10.006;2022-10-13T09:49:37;13.50;99.90
5792;DHT22;2922;53.482;10.006;2022-10-13T09:54:47;14.10;99.90
5792;DHT22;2922;53.482;10.006;2022-10-13T09:57:45;14.20;99.90
5792;DHT22;2922;53.482;10.006;2022-10-13T10:07:50;14.80;99.90
5792;DHT22;2922;53.482;10.006;2022-10-13T10:10:30;14.80;99.90
5792;DHT22;2922;53.482;10.006;2022-10-13T10:12:58;14.80;99.90
5792;DHT22;2922;53.482;10.006;2022-10-13T10:15:35;14.70;99.90
5792;DHT22;2922;53.482;10.006;2022-10-13T10:18:07;14.70;99.90
5792;DHT22;2922;53.482;10.006;2022-10-13T10:21:23;14.60;99.90
5792;DHT22;2922;53.482;10.006;2022-10-13T10:23:59;14.60;99.90
5792;DHT22;2922;53.482;10.006;2022-10-13T10:26:50;14.50;99.90
5792;DHT22;2922;53.482;10.006;2022-10-13T10:32:17;14.40;99.90
5792;DHT22;2922;53.482;10.006;2022-10-13T10:34:52;14.50;99.90
5792;DHT22;2922;53.482;10.006;2022-10-13T10:45:33;14.50;99.90
5792;DHT22;2922;53.482;10.006;2022-10-13T10:48:03;14.50;99.90
5792;DHT22;2922;53.482;10.006;2022-10-13T10:50:32;14.60;99.90
5792;DHT22;2922;53.482;10.006;2022-10-13T10:58:24;14.80;99.90
5792;DHT22;2922;53.482;10.006;2022-10-13T11:01:01;14.90;99.90
5792;DHT22;2922;53.482;10.006;2022-10-13T11:03:39;15.00;99.90
5792;DHT22;2922;53.482;10.006;2022-10-13T11:08:44;15.10;99.90
5792;DHT22;2922;53.482;10.006;2022-10-13T11:16:39;15.30;99.90
5792;DHT22;2922;53.482;10.006;2022-10-13T11:19:28;15.50;99.90
5792;DHT22;2922;53.482;10.006;2022-10-13T11:27:21;16.10;99.90
5792;DHT22;2922;53.482;10.006;2022-10-13T11:29:56;16.10;99.90
5792;DHT22;2922;53.482;10.006;2022-10-13T11:37:43;16.30;99.90
5792;DHT22;2922;53.482;10.006;2022-10-13T11:43:15;16.30;99.90
5792;DHT22;2922;53.482;10.006;2022-10-13T11:51:42;17.00;99.90
5792;DHT22;2922;53.482;10.006;2022-10-13T11:54:39;17.20;99.90
5792;DHT22;2922;53.482;10.006;2022-10-13T11:57:23;17.50;99.90
5792;DHT22;2922;53.482;10.006;2022-10-13T11:59:51;17.60;99.90
5792;DHT22;2922;53.482;10.006;2022-10-13T12:02:21;17.60;99.90
5792;DHT22;2922;53.482;10.006;2022-10-13T12:07:45;17.00;99.90
5792;DHT22;2922;53.482;10.006;2022-10-13T12:10:32;16.90;99.90
5792;DHT22;2922;53.482;10.006;2022-10-13T12:12:59;16.80;99.90
5792;DHT22;2922;53.482;10.006;2022-10-13T12:15:59;16.70;99.90
5792;DHT22;2922;53.482;10.006;2022-10-13T12:18:30;16.80;99.90
5792;DHT22;2922;53.482;10.006;2022-10-13T12:23:35;16.90;99.90
5792;DHT22;2922;53.482;10.006;2022-10-13T12:26:01;17.10;99.90
5792;DHT22;2922;53.482;10.006;2022-10-13T12:33:55;17.10;99.90
5792;DHT22;2922;53.482;10.006;2022-10-13T12:36:28;17.20;99.90
5792;DHT22;2922;53.482;10.006;2022-10-13T12:39:04;17.30;99.90
5792;DHT22;2922;53.482;10.006;2022-10-13T12:41:33;17.50;99.90
5792;DHT22;2922;53.482;10.006;2022-10-13T12:44:00;17.70;99.90
5792;DHT22;2922;53.482;10.006;2022-10-13T12:49:16;18.00;99.90
5792;DHT22;2922;53.482;10.006;2022-10-13T12:51:48;18.30;99.90
5792;DHT22;2922;53.482;10.006;2022-10-13T12:54:26;18.40;99.90
5792;DHT22;2922;53.482;10.006;2022-10-13T12:56:56;18.40;99.90
5792;DHT22;2922;53.482;10.006;2022-10-13T12:59:23;18.40;99.90
5792;DHT22;2922;53.482;10.006;2022-10-13T13:01:59;18.40;99.90
5792;DHT22;2922;53.482;10.006;2022-10-13T13:04:45;18.30;99.90
5792;DHT22;2922;53.482;10.006;2022-10-13T13:07:28;18.20;99.90
5792;DHT22;2922;53.482;10.006;2022-10-13T13:12:32;17.60;99.90
5792;DHT22;2922;53.482;10.006;2022-10-13T13:15:33;17.50;99.90
5792;DHT22;2922;53.482;10.006;2022-10-13T13:18:31;17.60;99.90
5792;DHT22;2922;53.482;10.006;2022-10-13T13:21:00;17.70;99.90
5792;DHT22;2922;53.482;10.006;2022-10-13T13:23:26;17.70;99.90
5792;DHT22;2922;53.482;10.006;2022-10-13T13:26:04;17.70;99.90
5792;DHT22;2922;53.482;10.006;2022-10-13T13:28:31;17.80;99.90
5792;DHT22;2922;53.482;10.006;2022-10-13T13:30:57;17.70;99.90
5792;DHT22;2922;53.482;10.006;2022-10-13T13:33:23;17.60;99.90
5792;DHT22;2922;53.482;10.006;2022-10-13T13:35:50;17.60;99.90
5792;DHT22;2922;53.482;10.006;2022-10-13T13:38:17;17.50;99.90
5792;DHT22;2922;53.482;10.006;2022-10-13T13:40:43;17.50;99.90
5792;DHT22;2922;53.482;10.006;2022-10-13T13:43:08;17.40;99.90
5792;DHT22;2922;53.482;10.006;2022-10-13T13:45:34;17.50;99.90
5792;DHT22;2922;53.482;10.006;2022-10-13T13:48:00;17.30;99.90
5792;DHT22;2922;53.482;10.006;2022-10-13T13:50:34;17.20;99.90
5792;DHT22;2922;53.482;10.006;2022-10-13T13:53:00;17.20;99.90
5792;DHT22;2922;53.482;10.006;2022-10-13T13:55:27;17.20;99.90
5792;DHT22;2922;53.482;10.006;2022-10-13T13:57:54;17.20;99.90
5792;DHT22;2922;53.482;10.006;2022-10-13T14:00:20;17.10;99.90
5792;DHT22;2922;53.482;10.006;2022-10-13T14:02:46;17.00;99.90
5792;DHT22;2922;53.482;10.006;2022-10-13T14:05:12;17.00;99.90
5792;DHT22;2922;53.482;10.006;2022-10-13T14:07:38;16.90;99.90
5792;DHT22;2922;53.482;10.006;2022-10-13T14:10:05;16.90;99.90
5792;DHT22;2922;53.482;10.006;2022-10-13T14:12:32;16.90;99.90
5792;DHT22;2922;53.482;10.006;2022-10-13T14:14:58;16.90;99.90
5792;DHT22;2922;53.482;10.006;2022-10-13T14:17:24;16.90;99.90
5792;DHT22;2922;53.482;10.006;2022-10-13T14:19:50;16.80;99.90
5792;DHT22;2922;53.482;10.006;2022-10-13T14:22:15;16.90;99.90
5792;DHT22;2922;53.482;10.006;2022-10-13T14:24:41;16.90;99.90
5792;DHT22;2922;53.482;10.006;2022-10-13T14:27:06;16.90;99.90
5792;DHT22;2922;53.482;10.006;2022-10-13T14:29:34;16.90;99.90
5792;DHT22;2922;53.482;10.006;2022-10-13T14:31:59;16.90;99.90
5792;DHT22;2922;53.482;10.006;2022-10-13T14:34:25;16.90;99.90
5792;DHT22;2922;53.482;10.006;2022-10-13T14:36:50;16.90;99.90
5792;DHT22;2922;53.482;10.006;2022-10-13T14:39:16;17.00;99.90
5792;DHT22;2922;53.482;10.006;2022-10-13T14:41:42;16.90;99.90
5792;DHT22;2922;53.482;10.006;2022-10-13T14:44:10;16.80;99.90
5792;DHT22;2922;53.482;10.006;2022-10-13T14:46:36;16.80;99.90
5792;DHT22;2922;53.482;10.006;2022-10-13T14:49:02;16.80;99.90
5792;DHT22;2922;53.482;10.006;2022-10-13T14:51:27;16.80;99.90
5792;DHT22;2922;53.482;10.006;2022-10-13T14:53:53;16.80;99.90
5792;DHT22;2922;53.482;10.006;2022-10-13T14:56:24;16.80;99.90
5792;DHT22;2922;53.482;10.006;2022-10-13T14:58:52;16.80;99.90
5792;DHT22;2922;53.482;10.006;2022-10-13T15:01:19;16.80;99.90
5792;DHT22;2922;53.482;10.006;2022-10-13T15:03:45;16.90;99.90
5792;DHT22;2922;53.482;10.006;2022-10-13T15:06:18;16.90;99.90
5792;DHT22;2922;53.482;10.006;2022-10-13T15:08:44;16.90;99.90
5792;DHT22;2922;53.482;10.006;2022-10-13T15:11:10;16.90;99.90
5792;DHT22;2922;53.482;10.006;2022-10-13T15:13:37;16.80;99.90
5792;DHT22;2922;53.482;10.006;2022-10-13T15:16:03;16.70;99.90
5792;DHT22;2922;53.482;10.006;2022-10-13T15:18:30;16.60;99.90
5792;DHT22;2922;53.482;10.006;2022-10-13T15:20:56;16.70;99.90
5792;DHT22;2922;53.482;10.006;2022-10-13T15:23:22;16.50;99.90
5792;DHT22;2922;53.482;10.006;2022-10-13T15:25:56;16.60;99.90
5792;DHT22;2922;53.482;10.006;2022-10-13T15:28:23;16.60;99.90
5792;DHT22;2922;53.482;10.006;2022-10-13T15:30:49;16.50;99.90
5792;DHT22;2922;53.482;10.006;2022-10-13T15:33:15;16.60;99.90
5792;DHT22;2922;53.482;10.006;2022-10-13T15:35:41;16.40;99.90
5792;DHT22;2922;53.482;10.006;2022-10-13T15:38:07;16.50;99.90
5792;DHT22;2922;53.482;10.006;2022-10-13T15:40:32;16.50;99.90
5792;DHT22;2922;53.482;10.006;2022-10-13T15:42:59;16.40;99.90
5792;DHT22;2922;53.482;10.006;2022-10-13T15:45:25;16.40;99.90
5792;DHT22;2922;53.482;10.006;2022-10-13T15:47:51;16.40;99.90
5792;DHT22;2922;53.482;10.006;2022-10-13T15:50:17;16.40;99.90
5792;DHT22;2922;53.482;10.006;2022-10-13T15:52:43;16.30;99.90
5792;DHT22;2922;53.482;10.006;2022-10-13T15:55:10;16.30;99.90
5792;DHT22;2922;53.482;10.006;2022-10-13T15:57:36;16.30;99.90
5792;DHT22;2922;53.482;10.006;2022-10-13T16:00:03;16.20;99.90
5792;DHT22;2922;53.482;10.006;2022-10-13T16:02:29;16.20;99.90
5792;DHT22;2922;53.482;10.006;2022-10-13T16:04:55;16.20;99.90
5792;DHT22;2922;53.482;10.006;2022-10-13T16:07:22;16.20;99.90
5792;DHT22;2922;53.482;10.006;2022-10-13T16:09:48;16.20;99.90
5792;DHT22;2922;53.482;10.006;2022-10-13T16:12:14;16.20;99.90
5792;DHT22;2922;53.482;10.006;2022-10-13T16:14:40;16.20;99.90
5792;DHT22;2922;53.482;10.006;2022-10-13T16:17:05;16.10;99.90
5792;DHT22;2922;53.482;10.006;2022-10-13T16:19:31;16.00;99.90
5792;DHT22;2922;53.482;10.006;2022-10-13T16:21:56;16.10;99.90
5792;DHT22;2922;53.482;10.006;2022-10-13T16:24:22;16.10;99.90
5792;DHT22;2922;53.482;10.006;2022-10-13T16:26:47;16.10;99.90
5792;DHT22;2922;53.482;10.006;2022-10-13T16:29:13;16.10;99.90
5792;DHT22;2922;53.482;10.006;2022-10-13T16:31:38;16.10;99.90
5792;DHT22;2922;53.482;10.006;2022-10-13T16:34:04;16.00;99.90
5792;DHT22;2922;53.482;10.006;2022-10-13T16:36:30;16.00;99.90
5792;DHT22;2922;53.482;10.006;2022-10-13T16:38:55;16.10;99.90
5792;DHT22;2922;53.482;10.006;2022-10-13T16:41:22;16.00;99.90
5792;DHT22;2922;53.482;10.006;2022-10-13T16:43:48;16.00;99.90
5792;DHT22;2922;53.482;10.006;2022-10-13T16:46:16;16.00;99.90
5792;DHT22;2922;53.482;10.006;2022-10-13T16:48:43;15.90;99.90
5792;DHT22;2922;53.482;10.006;2022-10-13T16:51:16;15.90;99.90
5792;DHT22;2922;53.482;10.006;2022-10-13T16:53:46;15.90;99.90
5792;DHT22;2922;53.482;10.006;2022-10-13T16:56:12;15.80;99.90
5792;DHT22;2922;53.482;10.006;2022-10-13T16:58:38;15.80;99.90
5792;DHT22;2922;53.482;10.006;2022-10-13T17:01:09;15.70;99.90
5792;DHT22;2922;53.482;10.006;2022-10-13T17:03:36;15.70;99.90
5792;DHT22;2922;53.482;10.006;2022-10-13T17:06:02;15.60;99.90
5792;DHT22;2922;53.482;10.006;2022-10-13T17:08:28;15.70;99.90
5792;DHT22;2922;53.482;10.006;2022-10-13T17:10:54;15.60;99.90
5792;DHT22;2922;53.482;10.006;2022-10-13T17:13:19;15.70;99.90
5792;DHT22;2922;53.482;10.006;2022-10-13T17:15:50;15.60;99.90
5792;DHT22;2922;53.482;10.006;2022-10-13T17:18:16;15.50;99.90
5792;DHT22;2922;53.482;10.006;2022-10-13T17:20:53;15.50;99.90
5792;DHT22;2922;53.482;10.006;2022-10-13T17:23:19;15.50;99.90
5792;DHT22;2922;53.482;10.006;2022-10-13T17:25:44;15.50;99.90
5792;DHT22;2922;53.482;10.006;2022-10-13T17:28:10;15.50;99.90
5792;DHT22;2922;53.482;10.006;2022-10-13T17:30:36;15.50;99.90
5792;DHT22;2922;53.482;10.006;2022-10-13T17:33:02;15.50;99.90
5792;DHT22;2922;53.482;10.006;2022-10-13T17:35:29;15.40;99.90
5792;DHT22;2922;53.482;10.006;2022-10-13T17:37:55;15.40;99.90
5792;DHT22;2922;53.482;10.006;2022-10-13T17:40:20;15.40;99.90
5792;DHT22;2922;53.482;10.006;2022-10-13T17:42:46;15.40;99.90
5792;DHT22;2922;53.482;10.006;2022-10-13T17:45:12;15.40;99.90
5792;DHT22;2922;53.482;10.006;2022-10-13T17:47:37;15.30;99.90
5792;DHT22;2922;53.482;10.006;2022-10-13T17:50:03;15.40;99.90
5792;DHT22;2922;53.482;10.006;2022-10-13T17:52:29;15.30;99.90